sensor_id;sensor_type;location;lat;lon;timestamp;P1;durP1;ratioP1;P2;durP2;ratioP2
36205;SDS011;22242;48.796;9.930;2022-11-15T00:01:14;3.67;;;1.55;;
36205;SDS011;22242;48.796;9.930;2022-11-15T00:04:01;2.95;;;1.33;;
36205;SDS011;22242;48.796;9.930;2022-11-15T00:06:47;2.70;;;1.20;;
36205;SDS011;22242;48.796;9.930;2022-11-15T00:09:32;3.40;;;1.75;;
36205;SDS011;22242;48.796;9.930;2022-11-15T00:12:18;2.85;;;1.20;;
36205;SDS011;22242;48.796;9.930;2022-11-15T00:15:06;1.85;;;1.40;;
36205;SDS011;22242;48.796;9.930;2022-11-15T00:17:52;2.95;;;1.45;;
36205;SDS011;22242;48.796;9.930;2022-11-15T00:20:37;2.50;;;1.30;;
36205;SDS011;22242;48.796;9.930;2022-11-15T00:23:23;2.67;;;1.33;;
36205;SDS011;22242;48.796;9.930;2022-11-15T00:26:10;2.22;;;1.40;;
36205;SDS011;22242;48.796;9.930;2022-11-15T00:28:57;1.75;;;1.10;;
36205;SDS011;22242;48.796;9.930;2022-11-15T00:31:44;2.28;;;1.50;;
36205;SDS011;22242;48.796;9.930;2022-11-15T00:34:29;3.95;;;1.50;;
36205;SDS011;22242;48.796;9.930;2022-11-15T00:37:15;3.25;;;1.98;;
36205;SDS011;22242;48.796;9.930;2022-11-15T00:40:01;3.33;;;1.27;;
36205;SDS011;22242;48.796;9.930;2022-11-15T00:42:46;3.90;;;1.73;;
36205;SDS011;22242;48.796;9.930;2022-11-15T00:45:32;4.32;;;1.80;;
36205;SDS011;22242;48.796;9.930;2022-11-15T00:48:18;1.73;;;1.50;;
36205;SDS011;22242;48.796;9.930;2022-11-15T00:51:04;2.20;;;1.30;;
36205;SDS011;22242;48.796;9.930;2022-11-15T00:53:50;3.83;;;1.38;;
36205;SDS011;22242;48.796;9.930;2022-11-15T00:56:35;2.97;;;1.30;;
36205;SDS011;22242;48.796;9.930;2022-11-15T00:59:21;2.03;;;1.00;;
36205;SDS011;22242;48.796;9.930;2022-11-15T01:02:06;1.67;;;1.02;;
36205;SDS011;22242;48.796;9.930;2022-11-15T01:04:53;4.15;;;1.42;;
36205;SDS011;22242;48.796;9.930;2022-11-15T01:07:38;3.63;;;1.20;;
36205;SDS011;22242;48.796;9.930;2022-11-15T01:10:24;2.25;;;1.02;;
36205;SDS011;22242;48.796;9.930;2022-11-15T01:13:09;2.20;;;1.38;;
36205;SDS011;22242;48.796;9.930;2022-11-15T01:15:55;2.58;;;1.23;;
36205;SDS011;22242;48.796;9.930;2022-11-15T01:18:40;1.25;;;0.80;;
36205;SDS011;22242;48.796;9.930;2022-11-15T01:21:27;1.67;;;1.27;;
36205;SDS011;22242;48.796;9.930;2022-11-15T01:24:12;2.10;;;1.30;;
36205;SDS011;22242;48.796;9.930;2022-11-15T01:26:58;2.28;;;1.15;;
36205;SDS011;22242;48.796;9.930;2022-11-15T01:29:44;1.33;;;0.90;;
36205;SDS011;22242;48.796;9.930;2022-11-15T01:32:29;1.08;;;0.98;;
36205;SDS011;22242;48.796;9.930;2022-11-15T01:35:15;2.53;;;1.15;;
36205;SDS011;22242;48.796;9.930;2022-11-15T01:38:01;4.78;;;1.20;;
36205;SDS011;22242;48.796;9.930;2022-11-15T01:40:47;2.65;;;1.20;;
36205;SDS011;22242;48.796;9.930;2022-11-15T01:43:33;3.13;;;1.13;;
36205;SDS011;22242;48.796;9.930;2022-11-15T01:46:25;1.88;;;1.00;;
36205;SDS011;22242;48.796;9.930;2022-11-15T01:49:15;1.50;;;1.00;;
36205;SDS011;22242;48.796;9.930;2022-11-15T01:52:04;1.67;;;1.00;;
36205;SDS011;22242;48.796;9.930;2022-11-15T01:54:55;3.17;;;1.52;;
36205;SDS011;22242;48.796;9.930;2022-11-15T01:57:45;1.45;;;1.05;;
36205;SDS011;22242;48.796;9.930;2022-11-15T02:00:32;2.72;;;1.20;;
36205;SDS011;22242;48.796;9.930;2022-11-15T02:03:18;3.10;;;1.20;;
36205;SDS011;22242;48.796;9.930;2022-11-15T02:06:06;2.75;;;1.30;;
36205;SDS011;22242;48.796;9.930;2022-11-15T02:08:52;2.70;;;1.27;;
36205;SDS011;22242;48.796;9.930;2022-11-15T02:11:40;2.30;;;1.33;;
36205;SDS011;22242;48.796;9.930;2022-11-15T02:14:26;1.70;;;1.23;;
36205;SDS011;22242;48.796;9.930;2022-11-15T02:17:16;2.05;;;1.40;;
36205;SDS011;22242;48.796;9.930;2022-11-15T02:20:28;2.72;;;1.38;;
36205;SDS011;22242;48.796;9.930;2022-11-15T02:30:20;2.85;;;1.25;;
36205;SDS011;22242;48.796;9.930;2022-11-15T02:33:12;4.22;;;1.63;;
36205;SDS011;22242;48.796;9.930;2022-11-15T02:36:05;3.35;;;1.70;;
36205;SDS011;22242;48.796;9.930;2022-11-15T02:38:58;5.53;;;1.80;;
36205;SDS011;22242;48.796;9.930;2022-11-15T02:41:48;1.70;;;1.60;;
36205;SDS011;22242;48.796;9.930;2022-11-15T02:44:39;3.55;;;1.60;;
36205;SDS011;22242;48.796;9.930;2022-11-15T02:47:29;1.98;;;1.40;;
36205;SDS011;22242;48.796;9.930;2022-11-15T02:50:20;2.35;;;1.50;;
36205;SDS011;22242;48.796;9.930;2022-11-15T02:53:08;2.90;;;1.63;;
36205;SDS011;22242;48.796;9.930;2022-11-15T02:55:53;3.92;;;1.63;;
36205;SDS011;22242;48.796;9.930;2022-11-15T02:58:54;3.33;;;1.45;;
36205;SDS011;22242;48.796;9.930;2022-11-15T03:01:55;2.45;;;1.70;;
36205;SDS011;22242;48.796;9.930;2022-11-15T03:04:50;5.80;;;1.50;;
36205;SDS011;22242;48.796;9.930;2022-11-15T03:07:42;1.90;;;1.40;;
36205;SDS011;22242;48.796;9.930;2022-11-15T03:10:41;3.65;;;1.70;;
36205;SDS011;22242;48.796;9.930;2022-11-15T03:13:34;2.05;;;1.55;;
36205;SDS011;22242;48.796;9.930;2022-11-15T03:16:25;2.28;;;1.42;;
36205;SDS011;22242;48.796;9.930;2022-11-15T03:19:17;2.55;;;1.23;;
36205;SDS011;22242;48.796;9.930;2022-11-15T03:22:12;2.78;;;1.60;;
36205;SDS011;22242;48.796;9.930;2022-11-15T03:25:02;2.22;;;1.48;;
36205;SDS011;22242;48.796;9.930;2022-11-15T03:27:52;6.68;;;1.80;;
36205;SDS011;22242;48.796;9.930;2022-11-15T03:30:39;3.42;;;1.30;;
36205;SDS011;22242;48.796;9.930;2022-11-15T03:33:25;2.47;;;1.20;;
36205;SDS011;22242;48.796;9.930;2022-11-15T03:36:12;1.75;;;1.27;;
36205;SDS011;22242;48.796;9.930;2022-11-15T03:39:00;2.45;;;1.50;;
36205;SDS011;22242;48.796;9.930;2022-11-15T03:41:50;3.22;;;1.35;;
36205;SDS011;22242;48.796;9.930;2022-11-15T03:44:46;2.95;;;1.65;;
36205;SDS011;22242;48.796;9.930;2022-11-15T03:47:38;2.63;;;1.70;;
36205;SDS011;22242;48.796;9.930;2022-11-15T03:50:28;2.10;;;1.50;;
36205;SDS011;22242;48.796;9.930;2022-11-15T03:53:14;4.93;;;1.58;;
36205;SDS011;22242;48.796;9.930;2022-11-15T03:56:01;2.58;;;1.75;;
36205;SDS011;22242;48.796;9.930;2022-11-15T03:58:47;4.15;;;1.90;;
36205;SDS011;22242;48.796;9.930;2022-11-15T04:01:32;2.15;;;1.60;;
36205;SDS011;22242;48.796;9.930;2022-11-15T04:04:18;5.57;;;1.90;;
36205;SDS011;22242;48.796;9.930;2022-11-15T04:07:04;3.60;;;1.90;;
36205;SDS011;22242;48.796;9.930;2022-11-15T04:09:49;2.97;;;2.03;;
36205;SDS011;22242;48.796;9.930;2022-11-15T04:12:48;3.38;;;1.83;;
36205;SDS011;22242;48.796;9.930;2022-11-15T04:15:34;3.40;;;1.75;;
36205;SDS011;22242;48.796;9.930;2022-11-15T04:18:19;4.28;;;2.00;;
36205;SDS011;22242;48.796;9.930;2022-11-15T04:21:05;5.68;;;2.15;;
36205;SDS011;22242;48.796;9.930;2022-11-15T04:26:58;5.68;;;1.80;;
36205;SDS011;22242;48.796;9.930;2022-11-15T04:29:45;2.90;;;2.17;;
36205;SDS011;22242;48.796;9.930;2022-11-15T04:32:30;2.63;;;1.83;;
36205;SDS011;22242;48.796;9.930;2022-11-15T04:35:16;3.28;;;1.95;;
36205;SDS011;22242;48.796;9.930;2022-11-15T04:38:02;3.42;;;1.90;;
36205;SDS011;22242;48.796;9.930;2022-11-15T04:40:49;2.85;;;1.95;;
36205;SDS011;22242;48.796;9.930;2022-11-15T04:43:34;3.88;;;2.10;;
36205;SDS011;22242;48.796;9.930;2022-11-15T04:46:21;4.82;;;2.70;;
36205;SDS011;22242;48.796;9.930;2022-11-15T04:49:07;3.83;;;2.65;;
36205;SDS011;22242;48.796;9.930;2022-11-15T04:51:53;4.35;;;2.92;;
36205;SDS011;22242;48.796;9.930;2022-11-15T04:54:38;3.83;;;2.80;;
36205;SDS011;22242;48.796;9.930;2022-11-15T04:57:25;7.55;;;2.90;;
36205;SDS011;22242;48.796;9.930;2022-11-15T05:00:11;5.00;;;3.42;;
36205;SDS011;22242;48.796;9.930;2022-11-15T05:03:00;4.03;;;2.92;;
36205;SDS011;22242;48.796;9.930;2022-11-15T05:06:03;4.53;;;3.20;;
36205;SDS011;22242;48.796;9.930;2022-11-15T05:08:50;4.28;;;3.72;;
36205;SDS011;22242;48.796;9.930;2022-11-15T05:11:35;4.07;;;3.25;;
36205;SDS011;22242;48.796;9.930;2022-11-15T05:14:20;4.15;;;3.47;;
36205;SDS011;22242;48.796;9.930;2022-11-15T05:17:06;4.22;;;3.70;;
36205;SDS011;22242;48.796;9.930;2022-11-15T05:19:53;4.20;;;3.25;;
36205;SDS011;22242;48.796;9.930;2022-11-15T05:22:38;3.50;;;3.13;;
36205;SDS011;22242;48.796;9.930;2022-11-15T05:25:24;5.50;;;3.58;;
36205;SDS011;22242;48.796;9.930;2022-11-15T05:28:10;5.47;;;3.20;;
36205;SDS011;22242;48.796;9.930;2022-11-15T05:31:00;5.03;;;3.20;;
36205;SDS011;22242;48.796;9.930;2022-11-15T05:33:45;5.55;;;3.30;;
36205;SDS011;22242;48.796;9.930;2022-11-15T05:36:33;4.55;;;2.50;;
36205;SDS011;22242;48.796;9.930;2022-11-15T05:39:21;4.22;;;2.83;;
36205;SDS011;22242;48.796;9.930;2022-11-15T05:42:07;4.13;;;2.80;;
36205;SDS011;22242;48.796;9.930;2022-11-15T05:44:54;3.38;;;3.03;;
36205;SDS011;22242;48.796;9.930;2022-11-15T05:47:41;5.18;;;3.22;;
36205;SDS011;22242;48.796;9.930;2022-11-15T05:50:27;4.70;;;3.22;;
36205;SDS011;22242;48.796;9.930;2022-11-15T05:53:14;3.95;;;2.67;;
36205;SDS011;22242;48.796;9.930;2022-11-15T05:56:03;5.65;;;2.45;;
36205;SDS011;22242;48.796;9.930;2022-11-15T05:58:51;5.65;;;3.17;;
36205;SDS011;22242;48.796;9.930;2022-11-15T06:01:37;5.28;;;3.10;;
36205;SDS011;22242;48.796;9.930;2022-11-15T06:04:24;5.47;;;3.10;;
36205;SDS011;22242;48.796;9.930;2022-11-15T06:07:09;4.38;;;2.60;;
36205;SDS011;22242;48.796;9.930;2022-11-15T06:09:56;4.03;;;2.90;;
36205;SDS011;22242;48.796;9.930;2022-11-15T06:12:42;3.92;;;2.70;;
36205;SDS011;22242;48.796;9.930;2022-11-15T06:15:27;4.18;;;3.05;;
36205;SDS011;22242;48.796;9.930;2022-11-15T06:18:13;4.80;;;2.53;;
36205;SDS011;22242;48.796;9.930;2022-11-15T06:20:58;2.92;;;2.38;;
36205;SDS011;22242;48.796;9.930;2022-11-15T06:23:44;5.35;;;2.33;;
36205;SDS011;22242;48.796;9.930;2022-11-15T06:26:31;3.80;;;2.25;;
36205;SDS011;22242;48.796;9.930;2022-11-15T06:29:16;3.58;;;2.28;;
36205;SDS011;22242;48.796;9.930;2022-11-15T06:32:02;3.22;;;1.92;;
36205;SDS011;22242;48.796;9.930;2022-11-15T06:34:47;2.80;;;1.92;;
36205;SDS011;22242;48.796;9.930;2022-11-15T06:37:33;4.85;;;2.75;;
36205;SDS011;22242;48.796;9.930;2022-11-15T06:40:18;6.95;;;2.40;;
36205;SDS011;22242;48.796;9.930;2022-11-15T06:43:05;7.38;;;3.13;;
36205;SDS011;22242;48.796;9.930;2022-11-15T06:45:51;8.55;;;3.95;;
36205;SDS011;22242;48.796;9.930;2022-11-15T06:48:36;13.98;;;5.07;;
36205;SDS011;22242;48.796;9.930;2022-11-15T06:51:22;12.15;;;4.00;;
36205;SDS011;22242;48.796;9.930;2022-11-15T06:54:07;6.43;;;3.40;;
36205;SDS011;22242;48.796;9.930;2022-11-15T06:56:53;4.40;;;2.72;;
36205;SDS011;22242;48.796;9.930;2022-11-15T06:59:39;3.35;;;2.03;;
36205;SDS011;22242;48.796;9.930;2022-11-15T07:02:25;4.20;;;2.45;;
36205;SDS011;22242;48.796;9.930;2022-11-15T07:05:10;4.05;;;2.13;;
36205;SDS011;22242;48.796;9.930;2022-11-15T07:07:57;2.78;;;1.95;;
36205;SDS011;22242;48.796;9.930;2022-11-15T07:10:43;3.55;;;2.10;;
36205;SDS011;22242;48.796;9.930;2022-11-15T07:13:29;2.50;;;2.30;;
36205;SDS011;22242;48.796;9.930;2022-11-15T07:16:17;3.50;;;2.40;;
36205;SDS011;22242;48.796;9.930;2022-11-15T07:19:03;4.35;;;2.80;;
36205;SDS011;22242;48.796;9.930;2022-11-15T07:21:48;5.80;;;2.20;;
36205;SDS011;22242;48.796;9.930;2022-11-15T07:24:33;4.90;;;2.95;;
36205;SDS011;22242;48.796;9.930;2022-11-15T07:27:19;4.45;;;2.28;;
36205;SDS011;22242;48.796;9.930;2022-11-15T07:30:05;3.15;;;2.53;;
36205;SDS011;22242;48.796;9.930;2022-11-15T07:32:53;3.22;;;2.22;;
36205;SDS011;22242;48.796;9.930;2022-11-15T07:35:38;7.03;;;3.75;;
36205;SDS011;22242;48.796;9.930;2022-11-15T07:38:23;7.55;;;4.10;;
36205;SDS011;22242;48.796;9.930;2022-11-15T07:41:10;6.13;;;3.65;;
36205;SDS011;22242;48.796;9.930;2022-11-15T07:43:56;5.30;;;3.53;;
36205;SDS011;22242;48.796;9.930;2022-11-15T07:46:41;9.82;;;3.80;;
36205;SDS011;22242;48.796;9.930;2022-11-15T07:49:28;6.22;;;3.40;;
36205;SDS011;22242;48.796;9.930;2022-11-15T07:52:14;10.15;;;3.28;;
36205;SDS011;22242;48.796;9.930;2022-11-15T07:54:59;5.32;;;3.90;;
36205;SDS011;22242;48.796;9.930;2022-11-15T07:57:45;9.70;;;3.72;;
36205;SDS011;22242;48.796;9.930;2022-11-15T08:00:30;9.30;;;4.20;;
36205;SDS011;22242;48.796;9.930;2022-11-15T08:03:16;9.07;;;4.50;;
36205;SDS011;22242;48.796;9.930;2022-11-15T08:06:03;10.18;;;4.55;;
36205;SDS011;22242;48.796;9.930;2022-11-15T08:08:48;6.68;;;3.47;;
36205;SDS011;22242;48.796;9.930;2022-11-15T08:11:34;14.93;;;6.90;;
36205;SDS011;22242;48.796;9.930;2022-11-15T08:14:19;10.18;;;5.32;;
36205;SDS011;22242;48.796;9.930;2022-11-15T08:17:05;11.48;;;5.03;;
36205;SDS011;22242;48.796;9.930;2022-11-15T08:19:51;6.05;;;4.38;;
36205;SDS011;22242;48.796;9.930;2022-11-15T08:22:37;9.25;;;4.40;;
36205;SDS011;22242;48.796;9.930;2022-11-15T08:25:23;6.50;;;4.40;;
36205;SDS011;22242;48.796;9.930;2022-11-15T08:28:10;5.10;;;4.10;;
36205;SDS011;22242;48.796;9.930;2022-11-15T08:30:56;10.00;;;4.50;;
36205;SDS011;22242;48.796;9.930;2022-11-15T08:33:41;6.45;;;3.83;;
36205;SDS011;22242;48.796;9.930;2022-11-15T08:36:27;9.55;;;4.05;;
36205;SDS011;22242;48.796;9.930;2022-11-15T08:39:14;8.85;;;4.72;;
36205;SDS011;22242;48.796;9.930;2022-11-15T08:41:59;6.68;;;3.85;;
36205;SDS011;22242;48.796;9.930;2022-11-15T08:44:45;4.10;;;3.70;;
36205;SDS011;22242;48.796;9.930;2022-11-15T08:47:30;4.70;;;3.15;;
36205;SDS011;22242;48.796;9.930;2022-11-15T08:50:16;4.88;;;3.58;;
36205;SDS011;22242;48.796;9.930;2022-11-15T08:53:04;8.10;;;3.85;;
36205;SDS011;22242;48.796;9.930;2022-11-15T08:55:52;4.30;;;3.83;;
36205;SDS011;22242;48.796;9.930;2022-11-15T08:58:37;4.82;;;3.78;;
36205;SDS011;22242;48.796;9.930;2022-11-15T09:01:23;3.50;;;3.20;;
36205;SDS011;22242;48.796;9.930;2022-11-15T09:04:08;4.70;;;3.00;;
36205;SDS011;22242;48.796;9.930;2022-11-15T09:06:54;5.38;;;3.25;;
36205;SDS011;22242;48.796;9.930;2022-11-15T09:09:39;5.40;;;2.97;;
36205;SDS011;22242;48.796;9.930;2022-11-15T09:12:26;4.15;;;2.80;;
36205;SDS011;22242;48.796;9.930;2022-11-15T09:15:11;3.85;;;3.03;;
36205;SDS011;22242;48.796;9.930;2022-11-15T09:17:57;3.50;;;3.20;;
36205;SDS011;22242;48.796;9.930;2022-11-15T09:20:43;5.93;;;3.40;;
36205;SDS011;22242;48.796;9.930;2022-11-15T09:23:28;3.50;;;3.20;;
36205;SDS011;22242;48.796;9.930;2022-11-15T09:26:14;7.40;;;4.88;;
36205;SDS011;22242;48.796;9.930;2022-11-15T09:29:01;6.28;;;3.65;;
36205;SDS011;22242;48.796;9.930;2022-11-15T09:31:47;5.53;;;3.50;;
36205;SDS011;22242;48.796;9.930;2022-11-15T09:34:32;6.22;;;4.03;;
36205;SDS011;22242;48.796;9.930;2022-11-15T09:37:18;6.00;;;4.10;;
36205;SDS011;22242;48.796;9.930;2022-11-15T09:40:03;5.55;;;3.15;;
36205;SDS011;22242;48.796;9.930;2022-11-15T09:42:52;7.28;;;3.40;;
36205;SDS011;22242;48.796;9.930;2022-11-15T09:45:52;4.00;;;2.50;;
36205;SDS011;22242;48.796;9.930;2022-11-15T09:48:49;7.45;;;2.40;;
36205;SDS011;22242;48.796;9.930;2022-11-15T09:51:33;6.63;;;3.17;;
36205;SDS011;22242;48.796;9.930;2022-11-15T09:54:08;3.55;;;2.80;;
36205;SDS011;22242;48.796;9.930;2022-11-15T09:56:40;2.80;;;2.50;;
36205;SDS011;22242;48.796;9.930;2022-11-15T09:59:25;3.75;;;2.72;;
36205;SDS011;22242;48.796;9.930;2022-11-15T10:02:04;2.95;;;2.63;;
36205;SDS011;22242;48.796;9.930;2022-11-15T10:04:39;3.45;;;2.55;;
36205;SDS011;22242;48.796;9.930;2022-11-15T10:07:12;5.13;;;2.75;;
36205;SDS011;22242;48.796;9.930;2022-11-15T10:09:44;3.20;;;2.40;;
36205;SDS011;22242;48.796;9.930;2022-11-15T10:12:15;4.60;;;2.53;;
36205;SDS011;22242;48.796;9.930;2022-11-15T10:14:42;4.85;;;2.78;;
36205;SDS011;22242;48.796;9.930;2022-11-15T10:17:24;6.60;;;3.90;;
36205;SDS011;22242;48.796;9.930;2022-11-15T10:20:23;5.97;;;2.90;;
36205;SDS011;22242;48.796;9.930;2022-11-15T10:22:52;10.25;;;3.30;;
36205;SDS011;22242;48.796;9.930;2022-11-15T10:25:22;16.42;;;6.97;;
36205;SDS011;22242;48.796;9.930;2022-11-15T10:27:55;11.82;;;5.78;;
36205;SDS011;22242;48.796;9.930;2022-11-15T10:30:28;5.85;;;3.65;;
36205;SDS011;22242;48.796;9.930;2022-11-15T10:32:59;9.80;;;4.55;;
36205;SDS011;22242;48.796;9.930;2022-11-15T10:35:43;6.22;;;3.17;;
36205;SDS011;22242;48.796;9.930;2022-11-15T10:38:10;5.82;;;3.47;;
36205;SDS011;22242;48.796;9.930;2022-11-15T10:40:38;4.85;;;2.45;;
36205;SDS011;22242;48.796;9.930;2022-11-15T10:43:14;12.68;;;8.48;;
36205;SDS011;22242;48.796;9.930;2022-11-15T10:45:43;4.72;;;3.85;;
36205;SDS011;22242;48.796;9.930;2022-11-15T10:48:22;5.35;;;3.33;;
36205;SDS011;22242;48.796;9.930;2022-11-15T10:50:50;14.20;;;5.90;;
36205;SDS011;22242;48.796;9.930;2022-11-15T10:53:30;6.85;;;3.50;;
36205;SDS011;22242;48.796;9.930;2022-11-15T10:56:00;1.52;;;1.40;;
36205;SDS011;22242;48.796;9.930;2022-11-15T10:58:32;1.42;;;1.33;;
36205;SDS011;22242;48.796;9.930;2022-11-15T11:01:08;2.72;;;1.23;;
36205;SDS011;22242;48.796;9.930;2022-11-15T11:03:38;2.25;;;1.10;;
36205;SDS011;22242;48.796;9.930;2022-11-15T11:06:07;3.00;;;1.40;;
36205;SDS011;22242;48.796;9.930;2022-11-15T11:08:36;5.40;;;2.40;;
36205;SDS011;22242;48.796;9.930;2022-11-15T11:11:03;5.18;;;2.88;;
36205;SDS011;22242;48.796;9.930;2022-11-15T11:13:32;5.63;;;2.85;;
36205;SDS011;22242;48.796;9.930;2022-11-15T11:16:18;5.65;;;2.60;;
36205;SDS011;22242;48.796;9.930;2022-11-15T11:19:11;8.15;;;3.63;;
36205;SDS011;22242;48.796;9.930;2022-11-15T11:21:51;7.25;;;2.70;;
36205;SDS011;22242;48.796;9.930;2022-11-15T11:24:27;3.55;;;2.75;;
36205;SDS011;22242;48.796;9.930;2022-11-15T11:27:03;6.55;;;2.78;;
36205;SDS011;22242;48.796;9.930;2022-11-15T11:29:43;6.40;;;2.38;;
36205;SDS011;22242;48.796;9.930;2022-11-15T11:32:24;3.08;;;2.33;;
36205;SDS011;22242;48.796;9.930;2022-11-15T11:35:05;5.50;;;2.42;;
36205;SDS011;22242;48.796;9.930;2022-11-15T11:37:40;2.15;;;1.40;;
36205;SDS011;22242;48.796;9.930;2022-11-15T11:40:15;2.95;;;1.75;;
36205;SDS011;22242;48.796;9.930;2022-11-15T11:42:51;1.55;;;1.40;;
36205;SDS011;22242;48.796;9.930;2022-11-15T11:45:38;4.45;;;1.75;;
36205;SDS011;22242;48.796;9.930;2022-11-15T11:48:27;2.75;;;1.30;;
36205;SDS011;22242;48.796;9.930;2022-11-15T11:51:12;2.05;;;1.20;;
36205;SDS011;22242;48.796;9.930;2022-11-15T11:53:45;1.75;;;1.30;;
36205;SDS011;22242;48.796;9.930;2022-11-15T11:56:21;1.67;;;1.50;;
36205;SDS011;22242;48.796;9.930;2022-11-15T11:58:52;1.20;;;1.10;;
36205;SDS011;22242;48.796;9.930;2022-11-15T12:01:22;2.45;;;1.73;;
36205;SDS011;22242;48.796;9.930;2022-11-15T12:03:53;4.18;;;2.20;;
36205;SDS011;22242;48.796;9.930;2022-11-15T12:06:26;5.13;;;2.40;;
36205;SDS011;22242;48.796;9.930;2022-11-15T12:08:58;5.72;;;2.35;;
36205;SDS011;22242;48.796;9.930;2022-11-15T12:11:34;5.65;;;2.33;;
36205;SDS011;22242;48.796;9.930;2022-11-15T12:14:05;5.25;;;2.83;;
36205;SDS011;22242;48.796;9.930;2022-11-15T12:16:50;3.58;;;2.75;;
36205;SDS011;22242;48.796;9.930;2022-11-15T12:19:17;5.75;;;2.78;;
36205;SDS011;22242;48.796;9.930;2022-11-15T12:21:48;3.13;;;2.15;;
36205;SDS011;22242;48.796;9.930;2022-11-15T12:24:22;5.93;;;2.55;;
36205;SDS011;22242;48.796;9.930;2022-11-15T12:26:53;4.75;;;2.25;;
36205;SDS011;22242;48.796;9.930;2022-11-15T12:29:26;2.47;;;1.92;;
36205;SDS011;22242;48.796;9.930;2022-11-15T12:31:58;3.67;;;2.15;;
36205;SDS011;22242;48.796;9.930;2022-11-15T12:34:35;6.28;;;2.28;;
36205;SDS011;22242;48.796;9.930;2022-11-15T12:46:10;5.85;;;2.22;;
36205;SDS011;22242;48.796;9.930;2022-11-15T12:48:46;3.15;;;1.98;;
36205;SDS011;22242;48.796;9.930;2022-11-15T12:51:18;9.85;;;2.30;;
36205;SDS011;22242;48.796;9.930;2022-11-15T12:53:46;13.38;;;2.53;;
36205;SDS011;22242;48.796;9.930;2022-11-15T12:56:21;7.65;;;2.10;;
36205;SDS011;22242;48.796;9.930;2022-11-15T12:58:54;6.15;;;2.40;;
36205;SDS011;22242;48.796;9.930;2022-11-15T13:04:27;5.32;;;2.90;;
36205;SDS011;22242;48.796;9.930;2022-11-15T13:06:57;6.10;;;2.80;;
36205;SDS011;22242;48.796;9.930;2022-11-15T13:15:35;2.88;;;2.15;;
36205;SDS011;22242;48.796;9.930;2022-11-15T13:21:18;1.85;;;1.75;;
36205;SDS011;22242;48.796;9.930;2022-11-15T13:26:37;6.88;;;3.63;;
36205;SDS011;22242;48.796;9.930;2022-11-15T13:29:12;10.40;;;3.10;;
36205;SDS011;22242;48.796;9.930;2022-11-15T13:31:42;8.75;;;2.95;;
36205;SDS011;22242;48.796;9.930;2022-11-15T13:34:16;8.50;;;4.57;;
36205;SDS011;22242;48.796;9.930;2022-11-15T13:36:50;10.18;;;4.80;;
36205;SDS011;22242;48.796;9.930;2022-11-15T13:39:24;5.90;;;2.80;;
36205;SDS011;22242;48.796;9.930;2022-11-15T13:41:52;7.03;;;2.95;;
36205;SDS011;22242;48.796;9.930;2022-11-15T13:44:21;3.20;;;2.67;;
36205;SDS011;22242;48.796;9.930;2022-11-15T13:47:00;3.72;;;2.45;;
36205;SDS011;22242;48.796;9.930;2022-11-15T13:49:29;3.92;;;2.10;;
36205;SDS011;22242;48.796;9.930;2022-11-15T13:51:57;3.10;;;2.05;;
36205;SDS011;22242;48.796;9.930;2022-11-15T13:54:27;2.88;;;2.20;;
36205;SDS011;22242;48.796;9.930;2022-11-15T13:56:56;4.40;;;2.13;;
36205;SDS011;22242;48.796;9.930;2022-11-15T13:59:28;3.75;;;2.47;;
36205;SDS011;22242;48.796;9.930;2022-11-15T14:01:58;5.35;;;2.63;;
36205;SDS011;22242;48.796;9.930;2022-11-15T14:04:27;4.88;;;2.50;;
36205;SDS011;22242;48.796;9.930;2022-11-15T14:06:58;5.15;;;2.15;;
36205;SDS011;22242;48.796;9.930;2022-11-15T14:09:36;5.78;;;4.18;;
36205;SDS011;22242;48.796;9.930;2022-11-15T14:14:50;3.78;;;3.03;;
36205;SDS011;22242;48.796;9.930;2022-11-15T14:17:19;5.40;;;2.33;;
36205;SDS011;22242;48.796;9.930;2022-11-15T14:19:48;6.30;;;3.53;;
36205;SDS011;22242;48.796;9.930;2022-11-15T14:22:18;2.97;;;2.05;;
36205;SDS011;22242;48.796;9.930;2022-11-15T14:24:47;4.43;;;1.88;;
36205;SDS011;22242;48.796;9.930;2022-11-15T14:27:30;5.43;;;3.33;;
36205;SDS011;22242;48.796;9.930;2022-11-15T14:29:58;7.57;;;4.28;;
36205;SDS011;22242;48.796;9.930;2022-11-15T14:32:26;5.60;;;2.20;;
36205;SDS011;22242;48.796;9.930;2022-11-15T14:34:54;7.05;;;2.80;;
36205;SDS011;22242;48.796;9.930;2022-11-15T14:37:24;4.95;;;3.10;;
36205;SDS011;22242;48.796;9.930;2022-11-15T14:39:52;4.88;;;2.88;;
36205;SDS011;22242;48.796;9.930;2022-11-15T14:42:20;4.38;;;2.00;;
36205;SDS011;22242;48.796;9.930;2022-11-15T14:44:50;4.15;;;2.63;;
36205;SDS011;22242;48.796;9.930;2022-11-15T14:47:19;4.15;;;2.50;;
36205;SDS011;22242;48.796;9.930;2022-11-15T14:49:46;7.53;;;2.53;;
36205;SDS011;22242;48.796;9.930;2022-11-15T14:52:19;4.57;;;1.60;;
36205;SDS011;22242;48.796;9.930;2022-11-15T14:54:51;2.80;;;1.80;;
36205;SDS011;22242;48.796;9.930;2022-11-15T14:57:18;2.60;;;1.77;;
36205;SDS011;22242;48.796;9.930;2022-11-15T14:59:45;4.80;;;2.20;;
36205;SDS011;22242;48.796;9.930;2022-11-15T15:02:14;3.00;;;2.00;;
36205;SDS011;22242;48.796;9.930;2022-11-15T15:04:45;2.63;;;2.22;;
36205;SDS011;22242;48.796;9.930;2022-11-15T15:07:12;2.42;;;1.95;;
36205;SDS011;22242;48.796;9.930;2022-11-15T15:09:39;4.07;;;2.08;;
36205;SDS011;22242;48.796;9.930;2022-11-15T15:12:09;4.85;;;1.85;;
36205;SDS011;22242;48.796;9.930;2022-11-15T15:14:44;3.22;;;2.33;;
36205;SDS011;22242;48.796;9.930;2022-11-15T15:17:12;2.25;;;2.08;;
36205;SDS011;22242;48.796;9.930;2022-11-15T15:19:39;4.47;;;1.90;;
36205;SDS011;22242;48.796;9.930;2022-11-15T15:22:09;2.28;;;1.90;;
36205;SDS011;22242;48.796;9.930;2022-11-15T15:24:40;4.57;;;2.03;;
36205;SDS011;22242;48.796;9.930;2022-11-15T15:27:07;2.63;;;2.00;;
36205;SDS011;22242;48.796;9.930;2022-11-15T15:29:34;7.97;;;2.17;;
36205;SDS011;22242;48.796;9.930;2022-11-15T15:32:01;2.65;;;2.10;;
36205;SDS011;22242;48.796;9.930;2022-11-15T15:34:28;3.83;;;1.98;;
36205;SDS011;22242;48.796;9.930;2022-11-15T15:37:08;5.82;;;2.30;;
36205;SDS011;22242;48.796;9.930;2022-11-15T15:39:45;2.55;;;2.30;;
36205;SDS011;22242;48.796;9.930;2022-11-15T15:42:12;4.53;;;2.10;;
36205;SDS011;22242;48.796;9.930;2022-11-15T15:44:38;3.00;;;2.40;;
36205;SDS011;22242;48.796;9.930;2022-11-15T15:47:07;3.83;;;2.65;;
36205;SDS011;22242;48.796;9.930;2022-11-15T15:49:37;6.22;;;2.70;;
36205;SDS011;22242;48.796;9.930;2022-11-15T15:52:04;6.63;;;2.85;;
36205;SDS011;22242;48.796;9.930;2022-11-15T15:54:32;3.97;;;2.65;;
36205;SDS011;22242;48.796;9.930;2022-11-15T15:56:59;3.60;;;2.65;;
36205;SDS011;22242;48.796;9.930;2022-11-15T15:59:26;3.10;;;2.80;;
36205;SDS011;22242;48.796;9.930;2022-11-15T16:01:52;3.78;;;3.20;;
36205;SDS011;22242;48.796;9.930;2022-11-15T16:04:19;3.72;;;3.17;;
36205;SDS011;22242;48.796;9.930;2022-11-15T16:06:46;6.45;;;3.17;;
36205;SDS011;22242;48.796;9.930;2022-11-15T16:09:15;6.32;;;3.50;;
36205;SDS011;22242;48.796;9.930;2022-11-15T16:11:45;5.60;;;3.38;;
36205;SDS011;22242;48.796;9.930;2022-11-15T16:14:12;5.88;;;3.42;;
36205;SDS011;22242;48.796;9.930;2022-11-15T16:16:39;5.38;;;3.95;;
36205;SDS011;22242;48.796;9.930;2022-11-15T16:19:07;5.15;;;3.90;;
36205;SDS011;22242;48.796;9.930;2022-11-15T16:21:36;6.03;;;3.83;;
36205;SDS011;22242;48.796;9.930;2022-11-15T16:24:03;4.63;;;4.22;;
36205;SDS011;22242;48.796;9.930;2022-11-15T16:26:30;6.10;;;4.75;;
36205;SDS011;22242;48.796;9.930;2022-11-15T16:29:00;8.45;;;5.55;;
36205;SDS011;22242;48.796;9.930;2022-11-15T16:31:27;11.77;;;7.47;;
36205;SDS011;22242;48.796;9.930;2022-11-15T16:33:53;9.98;;;7.10;;
36205;SDS011;22242;48.796;9.930;2022-11-15T16:36:21;12.23;;;7.40;;
36205;SDS011;22242;48.796;9.930;2022-11-15T16:38:48;13.45;;;6.88;;
36205;SDS011;22242;48.796;9.930;2022-11-15T16:41:16;13.52;;;7.28;;
36205;SDS011;22242;48.796;9.930;2022-11-15T16:43:43;11.80;;;7.90;;
36205;SDS011;22242;48.796;9.930;2022-11-15T16:46:17;13.75;;;7.50;;